East Mc Keesport, Pennsylvania
Current Conditions -  °F | °C
As of 11:25 AM on Friday 19 Dec 2014 (Local Time) from KAGC Reporting Station
Haze Haze  
Wind Chill: 22°   Ceiling: 900
Heat Index: 29°   Visibility: 4mi
Dew Point: 23°   Wind: 7mph
Humidity: 78%   Direction: 270°W
Pressure: 30.19"   Gusts: NA
Location:  40.3847°N, 79.8073°W
Report Text: KAGC 191625Z 27006KT 4SM BR BKN009 BKN016 OVC021 M02/M05 A3019 RMK AO2 SNE03 P0000 T10171050
Loading
Personal Weather Stations






























Interactive Weather Map New forecast layout! Learn more

10-Day Weather Forecast

Advertisements
Track Severe Weather on mobile